Portada
METAR-TAF:

METAR-TAF

Aeropuertos :

Aeropuerto de Magenta

Numea, Nueva Caledonia

latitud: 22-15-30S, longitud: 166-28-22E, altitud: 3 m

METAR: falta

Hora: 17:31 (06:31 UTC)

Pronóstico

El informe se hizo hace 13 horas y 31 minutos, a las 17:00 UTC
Pronóstico válido del 30 a las 18 UTC al 31 a las 18 UTC
Viento 10 kt del oeste
Visibilidad 10 km o más
Nubes dispersas a una altura de 5400 ft
Temporalmente
del 30 a las 18 UTC al 30 a las 21 UTC
Visibilidad: 3500 m
Cielo nuboso a una altura de 1000 ft
Escasas nubes a una altura de 1800 ft, Cumulonimbus.
chaparrones de lluvia
Evolucionando progresivamente
del 31 a las 00 UTC al 31 a las 02 UTC
Viento 8 kt del sur-sureste

TAF: NWWM 301700Z 3018/3118 27010KT 9999 SCT054 TEMPO 3018/3021 3500 SHRA BKN010 FEW018CB BECMG 3100/3102 15008KT

Observaciones y pronósticos meteorológicos de más de 4000 aeropuertos (mensajes METAR y TAF).

Los puntos amarillos y rojos representan las estaciones disponibles.

Ponga el ratón en el punto deseado para ver el nombre de la estación.

Haga clic para ver las observaciones y los pronósticos meteorológicos.

Para cambiar el mapa : haga clic en los botones verdes con una cruz de color negro para hacer un zoom, en el botón verde con un guión para alejar o en las flechas verdes para mapas adyacentes.


METAR-TAF: